M I D A S
Marine Information and Data Acquisition System
Tripno 2316 of the Zeeleeuw from 2012-05-21 08:23:06 to 2012-05-21 13:44:45
Back to CruiseResearch ActivitiesStationsMapUnderway DataData graphs

EquipmentUnitsComment
TimeDGPSUTC
LatitudeDGPSDM.mWGS84
LongitudeDGPSDM.mWGS84
HeadingGyrodeg 
SOGDGPSknotsSpeed over ground
COGDGPSdegCourse over ground
DepthEcho soundermeters200 kHz
Missing or incorrect values are displayed as -999
Navigation data collected by the RV Zeeleeuw from 2012-05-21 06:07:44 to 2012-05-21 13:58:18
                                                                                    Next 1000 lines
Time Latitude Longitude Heading SOG COG Depth
2012-05-21 06:07:54 51°13.633 2°56.019 125.1 0.3 21 -999
2012-05-21 06:07:58 51°13.633 2°56.019 125.1 0.1 5 -999
2012-05-21 06:08:03 51°13.633 2°56.019 125.1 -999 246 -999
2012-05-21 06:08:09 51°13.633 2°56.018 125.1 0.1 208 -999
2012-05-21 06:08:14 51°13.633 2°56.018 125.1 0.1 211 -999
2012-05-21 06:08:18 51°13.634 2°56.018 125.1 0.1 222 -999
2012-05-21 06:08:23 51°13.634 2°56.018 125.1 -999 223 -999
2012-05-21 06:08:29 51°13.634 2°56.018 125.1 0.1 208 -999
2012-05-21 06:08:34 51°13.634 2°56.018 125.1 -999 279 -999
2012-05-21 06:08:39 51°13.634 2°56.018 125.1 -999 247 -999
2012-05-21 06:08:44 51°13.635 2°56.018 125.1 0.1 14 -999
2012-05-21 06:08:48 51°13.636 2°56.018 125.1 0.2 24 -999
2012-05-21 06:08:54 51°13.637 2°56.018 125.1 0.1 14 -999
2012-05-21 06:08:59 51°13.637 2°56.018 125.1 0.1 203 -999
2012-05-21 06:09:03 51°13.636 2°56.017 125.1 0.1 208 -999
2012-05-21 06:09:08 51°13.636 2°56.017 125.1 0.1 20 -999
2012-05-21 06:09:13 51°13.635 2°56.017 125.1 0.1 18 -999
2012-05-21 06:09:18 51°13.635 2°56.016 125.1 -999 216 -999
2012-05-21 06:09:23 51°13.635 2°56.017 125.1 0.1 211 -999
2012-05-21 06:09:29 51°13.636 2°56.017 125.1 -999 276 -999
2012-05-21 06:09:33 51°13.637 2°56.017 125.1 0.1 35 -999
2012-05-21 06:09:39 51°13.638 2°56.017 125.1 -999 274 -999
2012-05-21 06:09:44 51°13.638 2°56.018 125.1 0.1 10 -999
2012-05-21 06:09:49 51°13.638 2°56.017 125.1 0.2 210 -999
2012-05-21 06:09:53 51°13.637 2°56.017 125.1 0.1 206 -999
2012-05-21 06:09:58 51°13.636 2°56.016 125.1 0.1 10 -999
2012-05-21 06:10:04 51°13.635 2°56.016 125.1 0.2 201 -999
2012-05-21 06:10:09 51°13.635 2°56.016 125.1 0.2 207 -999
2012-05-21 06:10:14 51°13.636 2°56.016 125.1 0.1 203 -999
2012-05-21 06:10:18 51°13.636 2°56.017 125.1 0.1 203 -999
2012-05-21 06:10:23 51°13.637 2°56.017 125.1 0.1 36 -999
2012-05-21 06:10:28 51°13.637 2°56.017 125.1 0.1 20 -999
2012-05-21 06:10:33 51°13.638 2°56.018 125.1 -999 267 -999
2012-05-21 06:10:39 51°13.638 2°56.018 125.1 -999 239 -999
2012-05-21 06:10:44 51°13.639 2°56.018 125.1 -999 328 -999
2012-05-21 06:10:49 51°13.64 2°56.019 125.1 -999 6 -999
2012-05-21 06:10:54 51°13.64 2°56.019 125.1 -999 170 -999
2012-05-21 06:10:58 51°13.64 2°56.019 125.1 -999 5 -999
2012-05-21 06:11:03 51°13.641 2°56.019 125.1 -999 23 -999
2012-05-21 06:11:08 51°13.641 2°56.02 125.1 0.1 34 -999
2012-05-21 06:11:13 51°13.64 2°56.02 125.1 0.1 27 -999
2012-05-21 06:11:19 51°13.641 2°56.02 125.1 0.2 31 -999
2012-05-21 06:11:24 51°13.64 2°56.02 125.1 0.2 18 -999
2012-05-21 06:11:29 51°13.64 2°56.02 125.1 0.1 213 -999
2012-05-21 06:11:33 51°13.64 2°56.02 125.1 0.1 203 -999
2012-05-21 06:11:39 51°13.64 2°56.02 125.1 -999 17 -999
2012-05-21 06:11:43 51°13.64 2°56.02 125.1 -999 234 -999
2012-05-21 06:11:48 51°13.64 2°56.02 125.1 0.1 211 -999
2012-05-21 06:11:54 51°13.64 2°56.021 125.1 -999 355 -999
2012-05-21 06:11:59 51°13.64 2°56.021 125.1 0.1 11 -999
2012-05-21 06:12:03 51°13.64 2°56.02 125.1 -999 223 -999
2012-05-21 06:12:08 51°13.64 2°56.021 125.1 -999 212 -999
2012-05-21 06:12:13 51°13.64 2°56.021 125.1 0.1 25 -999
2012-05-21 06:12:19 51°13.64 2°56.021 125.1 0.1 31 -999
2012-05-21 06:12:24 51°13.641 2°56.021 125.1 0.2 17 -999
2012-05-21 06:12:29 51°13.641 2°56.021 125.1 -999 13 -999
2012-05-21 06:12:33 51°13.64 2°56.02 125.1 -999 241 -999
2012-05-21 06:12:39 51°13.64 2°56.021 125.1 -999 204 -999
2012-05-21 06:12:44 51°13.64 2°56.02 125.1 0.1 182 -999
2012-05-21 06:12:49 51°13.64 2°56.02 125.1 -999 358 -999
2012-05-21 06:12:53 51°13.639 2°56.02 125.1 -999 14 -999
2012-05-21 06:12:59 51°13.639 2°56.02 125.1 -999 1 -999
2012-05-21 06:13:04 51°13.639 2°56.02 125.1 -999 229 -999
2012-05-21 06:13:09 51°13.639 2°56.02 125.1 -999 232 -999
2012-05-21 06:13:13 51°13.639 2°56.02 125.1 0.1 212 -999
2012-05-21 06:13:18 51°13.639 2°56.02 125.1 0.1 192 -999
2012-05-21 06:13:24 51°13.639 2°56.02 125.1 -999 31 -999
2012-05-21 06:13:29 51°13.639 2°56.02 125.1 -999 10 -999
2012-05-21 06:13:34 51°13.639 2°56.02 125.1 -999 193 -999
2012-05-21 06:13:39 51°13.639 2°56.02 125 0.1 218 -999
2012-05-21 06:13:44 51°13.639 2°56.02 125 0.1 14 -999
2012-05-21 06:13:49 51°13.639 2°56.02 125 0.1 9 -999
2012-05-21 06:13:53 51°13.639 2°56.02 125 0.1 12 -999
2012-05-21 06:13:59 51°13.639 2°56.02 125 -999 349 -999
2012-05-21 06:14:04 51°13.638 2°56.02 125 -999 7 -999
2012-05-21 06:14:09 51°13.638 2°56.02 125 -999 242 -999
2012-05-21 06:14:13 51°13.638 2°56.02 125 -999 196 -999
2012-05-21 06:14:18 51°13.638 2°56.02 125 -999 215 -999
2012-05-21 06:14:23 51°13.639 2°56.02 125 -999 259 -999
2012-05-21 06:14:28 51°13.639 2°56.02 125 -999 252 -999
2012-05-21 06:14:33 51°13.639 2°56.02 125 -999 123 -999
2012-05-21 06:14:38 51°13.639 2°56.02 124.9 -999 103 -999
2012-05-21 06:14:43 51°13.639 2°56.02 124.9 -999 91 -999
2012-05-21 06:14:49 51°13.639 2°56.02 124.9 -999 356 -999
2012-05-21 06:14:54 51°13.639 2°56.02 125 -999 132 -999
2012-05-21 06:14:58 51°13.639 2°56.02 125 -999 154 -999
2012-05-21 06:15:03 51°13.639 2°56.02 125 -999 81 -999
2012-05-21 06:15:08 51°13.639 2°56.02 125 -999 354 -999
2012-05-21 06:15:14 51°13.639 2°56.02 125 -999 352 -999
2012-05-21 06:15:19 51°13.639 2°56.02 125 -999 296 -999
2012-05-21 06:15:24 51°13.639 2°56.02 125 -999 317 -999
2012-05-21 06:15:29 51°13.639 2°56.02 125 -999 197 -999
2012-05-21 06:15:34 51°13.638 2°56.02 125 -999 178 -999
2012-05-21 06:15:39 51°13.638 2°56.02 125 0.1 26 -999
2012-05-21 06:15:44 51°13.637 2°56.02 125 -999 329 -999
2012-05-21 06:15:49 51°13.638 2°56.02 125 -999 219 -999
2012-05-21 06:15:54 51°13.638 2°56.02 125 -999 176 -999
2012-05-21 06:15:59 51°13.638 2°56.02 125 -999 122 -999
2012-05-21 06:16:04 51°13.638 2°56.02 125 0.1 190 -999
2012-05-21 06:16:09 51°13.638 2°56.02 125 0.1 230 -999
2012-05-21 06:16:14 51°13.638 2°56.019 125 0.1 178 -999
2012-05-21 06:16:19 51°13.638 2°56.019 125 0.1 172 -999
2012-05-21 06:16:23 51°13.638 2°56.019 125 -999 89 -999
2012-05-21 06:16:28 51°13.637 2°56.019 125 -999 97 -999
2012-05-21 06:16:34 51°13.637 2°56.019 125 0.1 177 -999
2012-05-21 06:16:39 51°13.638 2°56.019 125 -999 172 -999
2012-05-21 06:16:44 51°13.638 2°56.019 125 -999 318 -999
2012-05-21 06:16:49 51°13.638 2°56.019 125 0.1 177 -999
2012-05-21 06:16:54 51°13.638 2°56.019 124.9 -999 352 -999
2012-05-21 06:16:58 51°13.638 2°56.02 124.9 -999 146 -999
2012-05-21 06:17:03 51°13.638 2°56.019 124.9 -999 159 -999
2012-05-21 06:17:08 51°13.638 2°56.019 124.9 -999 341 -999
2012-05-21 06:17:14 51°13.638 2°56.019 124.9 -999 33 -999
2012-05-21 06:17:19 51°13.637 2°56.019 124.9 0.1 195 -999
2012-05-21 06:17:24 51°13.637 2°56.019 124.9 0.1 199 -999
2012-05-21 06:17:29 51°13.637 2°56.019 124.9 -999 237 -999
2012-05-21 06:17:34 51°13.637 2°56.019 124.9 -999 355 -999
2012-05-21 06:17:39 51°13.638 2°56.019 124.9 -999 1 -999
2012-05-21 06:17:44 51°13.638 2°56.019 124.9 -999 11 -999
2012-05-21 06:17:48 51°13.638 2°56.019 124.9 0.1 12 -999
2012-05-21 06:17:54 51°13.638 2°56.019 124.9 -999 8 -999
2012-05-21 06:17:59 51°13.638 2°56.019 124.9 -999 6 -999
2012-05-21 06:18:03 51°13.638 2°56.019 124.9 0.1 204 -999
2012-05-21 06:18:08 51°13.638 2°56.019 124.9 0.1 201 -999
2012-05-21 06:18:13 51°13.638 2°56.019 124.9 -999 87 -999
2012-05-21 06:18:19 51°13.637 2°56.019 124.9 -999 220 -999
2012-05-21 06:18:24 51°13.637 2°56.019 124.9 -999 204 -999
2012-05-21 06:18:29 51°13.638 2°56.019 124.9 -999 303 -999
2012-05-21 06:18:34 51°13.638 2°56.019 124.9 0.1 200 -999
2012-05-21 06:18:38 51°13.638 2°56.02 124.9 -999 195 -999
2012-05-21 06:18:44 51°13.638 2°56.019 124.9 -999 231 -999
2012-05-21 06:18:49 51°13.637 2°56.019 124.9 0.1 185 -999
2012-05-21 06:18:54 51°13.637 2°56.019 124.9 0.1 201 -999
2012-05-21 06:18:58 51°13.637 2°56.019 124.9 -999 172 -999
2012-05-21 06:19:03 51°13.637 2°56.019 124.9 0.1 12 -999
2012-05-21 06:19:09 51°13.638 2°56.019 124.9 0.1 359 -999
2012-05-21 06:19:14 51°13.638 2°56.02 124.9 0.1 4 -999
2012-05-21 06:19:19 51°13.638 2°56.02 124.9 0.1 5 -999
2012-05-21 06:19:24 51°13.637 2°56.019 124.9 0.1 193 -999
2012-05-21 06:19:29 51°13.637 2°56.019 124.9 0.1 177 -999
2012-05-21 06:19:33 51°13.637 2°56.019 124.9 0.1 199 -999
2012-05-21 06:19:39 51°13.637 2°56.019 124.9 0.1 185 -999
2012-05-21 06:19:43 51°13.637 2°56.019 124.9 -999 276 -999
2012-05-21 06:19:48 51°13.637 2°56.019 124.9 -999 260 -999
2012-05-21 06:19:53 51°13.637 2°56.019 124.9 -999 8 -999
2012-05-21 06:19:58 51°13.637 2°56.019 124.9 -999 9 -999
2012-05-21 06:20:03 51°13.637 2°56.019 124.9 -999 315 -999
2012-05-21 06:20:09 51°13.637 2°56.019 124.9 0.1 191 -999
2012-05-21 06:20:14 51°13.637 2°56.019 124.9 0.1 189 -999
2012-05-21 06:20:19 51°13.637 2°56.019 124.9 -999 196 -999
2012-05-21 06:20:23 51°13.637 2°56.019 124.9 0.1 8 -999
2012-05-21 06:20:28 51°13.636 2°56.019 124.9 -999 276 -999
2012-05-21 06:20:33 51°13.637 2°56.019 124.9 -999 350 -999
2012-05-21 06:20:39 51°13.637 2°56.019 124.9 -999 17 -999
2012-05-21 06:20:44 51°13.637 2°56.019 124.9 -999 19 -999
2012-05-21 06:20:49 51°13.636 2°56.019 124.9 -999 156 -999
2012-05-21 06:20:54 51°13.636 2°56.019 124.9 -999 3 -999
2012-05-21 06:20:59 51°13.636 2°56.019 124.9 -999 212 -999
2012-05-21 06:21:03 51°13.636 2°56.019 124.9 -999 208 -999
2012-05-21 06:21:08 51°13.636 2°56.019 124.9 -999 198 -999
2012-05-21 06:21:13 51°13.636 2°56.019 124.9 -999 312 -999
2012-05-21 06:21:18 51°13.636 2°56.019 124.9 0.1 202 -999
2012-05-21 06:21:24 51°13.636 2°56.019 124.9 -999 207 -999
2012-05-21 06:21:28 51°13.636 2°56.019 124.9 -999 351 -999
2012-05-21 06:21:33 51°13.636 2°56.019 124.9 -999 123 -999
2012-05-21 06:21:38 51°13.636 2°56.019 124.9 -999 6 -999
2012-05-21 06:21:44 51°13.636 2°56.019 124.9 -999 169 -999
2012-05-21 06:21:49 51°13.636 2°56.019 124.9 -999 39 -999
2012-05-21 06:21:54 51°13.636 2°56.019 124.9 0.1 3 -999
2012-05-21 06:21:59 51°13.636 2°56.019 124.9 -999 183 -999
2012-05-21 06:22:04 51°13.636 2°56.019 124.9 -999 356 -999
2012-05-21 06:22:09 51°13.636 2°56.019 124.9 0.1 359 -999
2012-05-21 06:22:14 51°13.636 2°56.019 124.9 -999 313 -999
2012-05-21 06:22:19 51°13.636 2°56.019 124.9 0.1 193 -999
2012-05-21 06:22:24 51°13.636 2°56.019 124.9 0.1 203 -999
2012-05-21 06:22:29 51°13.636 2°56.019 124.9 -999 159 -999
2012-05-21 06:22:33 51°13.636 2°56.019 124.9 -999 1 -999
2012-05-21 06:22:38 51°13.636 2°56.019 124.9 -999 259 -999
2012-05-21 06:22:43 51°13.636 2°56.018 124.9 0.1 187 -999
2012-05-21 06:22:48 51°13.636 2°56.018 124.9 0.1 176 -999
2012-05-21 06:22:53 51°13.636 2°56.019 124.9 0.1 5 -999
2012-05-21 06:22:59 51°13.636 2°56.018 124.9 -999 344 -999
2012-05-21 06:23:04 51°13.636 2°56.018 124.9 -999 174 -999
2012-05-21 06:23:09 51°13.635 2°56.018 124.9 0.1 201 -999
2012-05-21 06:23:13 51°13.635 2°56.018 124.9 0.1 177 -999
2012-05-21 06:23:18 51°13.635 2°56.018 124.9 0.1 197 -999
2012-05-21 06:23:23 51°13.635 2°56.018 124.9 -999 194 -999
2012-05-21 06:23:28 51°13.636 2°56.018 124.9 -999 205 -999
2012-05-21 06:23:33 51°13.635 2°56.018 124.9 -999 31 -999
2012-05-21 06:23:38 51°13.635 2°56.018 124.9 -999 9 -999
2012-05-21 06:23:44 51°13.635 2°56.018 124.9 -999 217 -999
2012-05-21 06:23:49 51°13.635 2°56.018 124.9 0.1 184 -999
2012-05-21 06:23:54 51°13.635 2°56.018 124.9 -999 181 -999
2012-05-21 06:23:59 51°13.635 2°56.018 124.9 -999 319 -999
2012-05-21 06:24:04 51°13.635 2°56.018 124.9 -999 223 -999
2012-05-21 06:24:09 51°13.635 2°56.018 124.9 -999 197 -999
2012-05-21 06:24:14 51°13.635 2°56.018 124.9 -999 196 -999
2012-05-21 06:24:19 51°13.635 2°56.018 124.9 0.1 18 -999
2012-05-21 06:24:23 51°13.635 2°56.018 124.9 -999 2 -999
2012-05-21 06:24:29 51°13.635 2°56.018 124.9 -999 218 -999
2012-05-21 06:24:33 51°13.635 2°56.018 124.9 0.1 193 -999
2012-05-21 06:24:39 51°13.635 2°56.018 124.9 0.1 195 -999
2012-05-21 06:24:44 51°13.635 2°56.018 124.9 -999 200 -999
2012-05-21 06:24:49 51°13.635 2°56.018 124.9 -999 4 -999
2012-05-21 06:24:54 51°13.635 2°56.018 124.9 -999 219 -999
2012-05-21 06:24:59 51°13.635 2°56.018 124.9 0.1 15 -999
2012-05-21 06:25:03 51°13.635 2°56.018 124.9 -999 3 -999
2012-05-21 06:25:09 51°13.635 2°56.018 124.9 0.1 193 -999
2012-05-21 06:25:14 51°13.635 2°56.018 124.9 -999 11 -999
2012-05-21 06:25:18 51°13.635 2°56.018 124.9 -999 1 -999
2012-05-21 06:25:23 51°13.635 2°56.018 124.9 -999 242 -999
2012-05-21 06:25:29 51°13.635 2°56.018 124.9 -999 196 -999
2012-05-21 06:25:34 51°13.635 2°56.018 124.9 -999 170 -999
2012-05-21 06:25:38 51°13.635 2°56.018 124.9 -999 24 -999
2012-05-21 06:25:44 51°13.635 2°56.018 124.9 -999 321 -999
2012-05-21 06:25:49 51°13.635 2°56.018 124.9 -999 205 -999
2012-05-21 06:25:53 51°13.635 2°56.018 124.9 -999 228 -999
2012-05-21 06:25:58 51°13.635 2°56.018 124.9 0.1 185 -999
2012-05-21 06:26:04 51°13.635 2°56.018 124.9 -999 150 -999
2012-05-21 06:26:09 51°13.635 2°56.018 124.9 -999 339 -999
2012-05-21 06:26:13 51°13.635 2°56.018 124.9 0.1 18 -999
2012-05-21 06:26:19 51°13.635 2°56.018 124.9 0.1 13 -999
2012-05-21 06:26:24 51°13.635 2°56.018 124.9 -999 265 -999
2012-05-21 06:26:29 51°13.636 2°56.018 124.9 -999 1 -999
2012-05-21 06:26:34 51°13.636 2°56.018 124.9 0.1 9 -999
2012-05-21 06:26:39 51°13.636 2°56.018 124.9 0.1 32 -999
2012-05-21 06:26:44 51°13.636 2°56.018 124.9 -999 22 -999
2012-05-21 06:26:49 51°13.636 2°56.018 124.9 0.1 34 -999
2012-05-21 06:26:53 51°13.636 2°56.019 124.9 0.1 77 -999
2012-05-21 06:26:58 51°13.636 2°56.018 124.9 -999 152 -999
2012-05-21 06:27:03 51°13.636 2°56.018 124.9 -999 319 -999
2012-05-21 06:27:08 51°13.636 2°56.019 124.9 0.1 40 -999
2012-05-21 06:27:13 51°13.636 2°56.018 124.9 -999 222 -999
2012-05-21 06:27:18 51°13.636 2°56.018 124.9 -999 217 -999
2012-05-21 06:27:23 51°13.636 2°56.018 124.9 0.1 349 -999
2012-05-21 06:27:28 51°13.636 2°56.018 124.9 0.1 228 -999
2012-05-21 06:27:33 51°13.636 2°56.018 124.9 0.2 204 -999
2012-05-21 06:27:38 51°13.636 2°56.018 124.9 0.2 210 -999
2012-05-21 06:27:43 51°13.636 2°56.018 124.9 0.1 212 -999
2012-05-21 06:27:49 51°13.636 2°56.019 124.9 0.1 60 -999
2012-05-21 06:27:54 51°13.636 2°56.018 124.9 -999 93 -999
2012-05-21 06:27:59 51°13.635 2°56.018 124.9 0.2 219 -999
2012-05-21 06:28:04 51°13.636 2°56.018 124.9 -999 302 -999
2012-05-21 06:28:09 51°13.636 2°56.018 124.9 0.1 -999 -999
2012-05-21 06:28:14 51°13.636 2°56.018 124.9 0.1 35 -999
2012-05-21 06:28:19 51°13.635 2°56.018 124.9 0.1 37 -999
2012-05-21 06:28:24 51°13.635 2°56.018 124.9 -999 202 -999
2012-05-21 06:28:29 51°13.635 2°56.018 124.9 -999 229 -999
2012-05-21 06:28:34 51°13.635 2°56.018 124.9 0.1 42 -999
2012-05-21 06:28:38 51°13.635 2°56.018 124.9 -999 186 -999
2012-05-21 06:28:44 51°13.635 2°56.018 124.9 -999 205 -999
2012-05-21 06:28:49 51°13.635 2°56.018 124.9 -999 20 -999
2012-05-21 06:28:53 51°13.635 2°56.018 124.9 -999 42 -999
2012-05-21 06:28:58 51°13.635 2°56.018 124.9 0.1 17 -999
2012-05-21 06:29:04 51°13.635 2°56.017 124.9 0.1 217 -999
2012-05-21 06:29:08 51°13.635 2°56.018 124.9 -999 28 -999
2012-05-21 06:29:13 51°13.635 2°56.018 124.9 0.1 32 -999
2012-05-21 06:29:18 51°13.635 2°56.018 124.9 0.1 34 -999
2012-05-21 06:29:23 51°13.635 2°56.018 124.9 -999 8 -999
2012-05-21 06:29:28 51°13.635 2°56.018 124.9 -999 259 -999
2012-05-21 06:29:33 51°13.635 2°56.018 124.9 0.1 38 -999
2012-05-21 06:29:38 51°13.635 2°56.018 124.9 -999 217 -999
2012-05-21 06:29:43 51°13.635 2°56.018 124.9 -999 135 -999
2012-05-21 06:29:48 51°13.635 2°56.018 124.9 0.1 29 -999
2012-05-21 06:29:53 51°13.635 2°56.018 124.9 -999 349 -999
2012-05-21 06:29:59 51°13.635 2°56.018 124.9 -999 7 -999
2012-05-21 06:30:04 51°13.635 2°56.018 124.9 -999 175 -999
2012-05-21 06:30:09 51°13.636 2°56.018 124.9 0.1 351 -999
2012-05-21 06:30:14 51°13.636 2°56.018 124.9 -999 101 -999
2012-05-21 06:30:19 51°13.636 2°56.018 124.9 0.1 161 -999
2012-05-21 06:30:24 51°13.636 2°56.018 124.9 0.1 179 -999
2012-05-21 06:30:29 51°13.636 2°56.018 124.9 -999 170 -999
2012-05-21 06:30:34 51°13.636 2°56.018 124.9 -999 165 -999
2012-05-21 06:30:39 51°13.636 2°56.018 124.9 -999 163 -999
2012-05-21 06:30:44 51°13.636 2°56.018 124.9 -999 174 -999
2012-05-21 06:30:49 51°13.636 2°56.018 124.9 -999 221 -999
2012-05-21 06:30:54 51°13.636 2°56.018 124.9 -999 194 -999
2012-05-21 06:30:59 51°13.636 2°56.018 124.9 -999 323 -999
2012-05-21 06:31:04 51°13.636 2°56.018 124.9 -999 304 -999
2012-05-21 06:31:08 51°13.636 2°56.018 124.9 -999 331 -999
2012-05-21 06:31:14 51°13.636 2°56.018 124.9 -999 158 -999
2012-05-21 06:31:19 51°13.636 2°56.018 124.9 -999 62 -999
2012-05-21 06:31:24 51°13.636 2°56.018 124.9 0.1 174 -999
2012-05-21 06:31:29 51°13.636 2°56.018 124.9 0.2 167 -999
2012-05-21 06:31:34 51°13.636 2°56.018 124.9 -999 175 -999
2012-05-21 06:31:38 51°13.636 2°56.018 124.9 -999 32 -999
2012-05-21 06:31:44 51°13.636 2°56.018 124.9 -999 58 -999
2012-05-21 06:31:49 51°13.636 2°56.018 124.9 -999 140 -999
2012-05-21 06:31:54 51°13.636 2°56.018 124.9 -999 175 -999
2012-05-21 06:31:59 51°13.636 2°56.018 124.9 -999 184 -999
2012-05-21 06:32:04 51°13.636 2°56.018 124.9 0.1 173 -999
2012-05-21 06:32:09 51°13.636 2°56.018 124.9 -999 16 -999
2012-05-21 06:32:14 51°13.636 2°56.018 124.9 -999 120 -999
2012-05-21 06:32:19 51°13.636 2°56.018 124.9 -999 357 -999
2012-05-21 06:32:24 51°13.636 2°56.018 124.9 0.1 314 -999
2012-05-21 06:32:29 51°13.636 2°56.018 124.9 -999 31 -999
2012-05-21 06:32:34 51°13.636 2°56.018 124.9 -999 225 -999
2012-05-21 06:32:39 51°13.636 2°56.018 124.9 0.1 186 -999
2012-05-21 06:32:44 51°13.636 2°56.018 124.9 -999 182 -999
2012-05-21 06:32:49 51°13.636 2°56.018 124.9 -999 279 -999
2012-05-21 06:32:54 51°13.636 2°56.018 124.9 0.1 183 -999
2012-05-21 06:32:59 51°13.636 2°56.018 124.9 -999 177 -999
2012-05-21 06:33:04 51°13.636 2°56.018 124.9 0.1 4 -999
2012-05-21 06:33:09 51°13.636 2°56.018 124.9 0.1 4 -999
2012-05-21 06:33:13 51°13.636 2°56.018 124.9 -999 323 -999
2012-05-21 06:33:18 51°13.636 2°56.018 124.9 -999 328 -999
2012-05-21 06:33:24 51°13.636 2°56.018 124.9 -999 140 -999
2012-05-21 06:33:29 51°13.636 2°56.018 124.9 -999 144 -999
2012-05-21 06:33:34 51°13.636 2°56.018 124.9 -999 257 -999
2012-05-21 06:33:39 51°13.636 2°56.018 124.9 0.1 171 -999
2012-05-21 06:33:44 51°13.636 2°56.018 124.9 0.1 149 -999
2012-05-21 06:33:49 51°13.636 2°56.018 124.9 -999 48 -999
2012-05-21 06:33:53 51°13.636 2°56.017 124.9 -999 63 -999
2012-05-21 06:33:58 51°13.636 2°56.017 124.9 0.1 16 -999
2012-05-21 06:34:03 51°13.636 2°56.017 124.9 -999 167 -999
2012-05-21 06:34:08 51°13.636 2°56.017 124.9 0.1 182 -999
2012-05-21 06:34:13 51°13.636 2°56.017 124.9 -999 332 -999
2012-05-21 06:34:18 51°13.636 2°56.017 124.9 -999 8 -999
2012-05-21 06:34:23 51°13.636 2°56.017 124.9 -999 316 -999
2012-05-21 06:34:29 51°13.636 2°56.017 124.9 -999 74 -999
2012-05-21 06:34:34 51°13.636 2°56.017 124.9 -999 310 -999
2012-05-21 06:34:39 51°13.635 2°56.017 124.9 -999 196 -999
2012-05-21 06:34:44 51°13.635 2°56.017 124.9 -999 321 -999
2012-05-21 06:34:49 51°13.634 2°56.017 124.9 0.1 200 -999
2012-05-21 06:34:54 51°13.634 2°56.017 124.9 -999 82 -999
2012-05-21 06:34:59 51°13.634 2°56.017 124.9 -999 151 -999
2012-05-21 06:35:03 51°13.634 2°56.017 124.9 -999 253 -999
2012-05-21 06:35:09 51°13.635 2°56.017 124.9 0.1 186 -999
2012-05-21 06:35:14 51°13.635 2°56.017 124.9 -999 188 -999
2012-05-21 06:35:18 51°13.635 2°56.017 124.9 -999 266 -999
2012-05-21 06:35:24 51°13.635 2°56.017 124.9 0.1 13 -999
2012-05-21 06:35:28 51°13.635 2°56.017 124.9 0.1 23 -999
2012-05-21 06:35:34 51°13.635 2°56.017 124.9 0.1 159 -999
2012-05-21 06:35:39 51°13.636 2°56.017 124.9 -999 199 -999
2012-05-21 06:35:44 51°13.636 2°56.017 124.9 -999 250 -999
2012-05-21 06:35:49 51°13.636 2°56.017 124.9 -999 207 -999
2012-05-21 06:35:54 51°13.636 2°56.017 124.9 0.1 176 -999
2012-05-21 06:35:59 51°13.636 2°56.017 124.9 0.1 170 -999
2012-05-21 06:36:04 51°13.636 2°56.017 124.9 -999 188 -999
2012-05-21 06:36:09 51°13.636 2°56.017 124.9 -999 346 -999
2012-05-21 06:36:13 51°13.636 2°56.017 124.9 -999 286 -999
2012-05-21 06:36:19 51°13.636 2°56.017 124.9 -999 336 -999
2012-05-21 06:36:24 51°13.636 2°56.017 124.9 -999 202 -999
2012-05-21 06:36:29 51°13.637 2°56.017 124.9 -999 347 -999
2012-05-21 06:36:34 51°13.636 2°56.017 124.9 -999 232 -999
2012-05-21 06:36:39 51°13.636 2°56.017 124.9 0.1 198 -999
2012-05-21 06:36:44 51°13.636 2°56.017 124.9 -999 185 -999
2012-05-21 06:36:49 51°13.636 2°56.017 124.9 -999 128 -999
2012-05-21 06:36:54 51°13.636 2°56.017 124.9 -999 316 -999
2012-05-21 06:36:59 51°13.636 2°56.017 124.9 -999 334 -999
2012-05-21 06:37:03 51°13.636 2°56.016 124.9 -999 142 -999
2012-05-21 06:37:08 51°13.636 2°56.016 124.9 0.1 161 -999
2012-05-21 06:37:13 51°13.636 2°56.016 124.9 -999 29 -999
2012-05-21 06:37:18 51°13.636 2°56.016 124.9 -999 285 -999
2012-05-21 06:37:24 51°13.636 2°56.016 124.9 -999 288 -999
2012-05-21 06:37:29 51°13.636 2°56.016 124.9 -999 310 -999
2012-05-21 06:37:34 51°13.636 2°56.016 124.9 -999 326 -999
2012-05-21 06:37:39 51°13.636 2°56.016 124.9 -999 188 -999
2012-05-21 06:37:44 51°13.636 2°56.016 124.9 0.1 176 -999
2012-05-21 06:37:48 51°13.636 2°56.016 124.9 -999 157 -999
2012-05-21 06:37:54 51°13.636 2°56.016 124.9 -999 4 -999
2012-05-21 06:37:59 51°13.636 2°56.016 124.9 -999 337 -999
2012-05-21 06:38:03 51°13.636 2°56.016 124.9 -999 344 -999
2012-05-21 06:38:08 51°13.636 2°56.016 124.9 -999 135 -999
2012-05-21 06:38:14 51°13.636 2°56.017 124.9 -999 180 -999
2012-05-21 06:38:18 51°13.636 2°56.017 124.9 -999 183 -999
2012-05-21 06:38:23 51°13.635 2°56.017 124.9 -999 162 -999
2012-05-21 06:38:28 51°13.635 2°56.017 124.9 -999 192 -999
2012-05-21 06:38:33 51°13.635 2°56.017 124.9 -999 190 -999
2012-05-21 06:38:38 51°13.635 2°56.017 124.9 -999 202 -999
2012-05-21 06:38:44 51°13.635 2°56.017 124.9 0.1 200 -999
2012-05-21 06:38:48 51°13.635 2°56.017 124.9 0.1 189 -999
2012-05-21 06:38:54 51°13.635 2°56.018 124.9 -999 63 -999
2012-05-21 06:38:58 51°13.635 2°56.018 124.9 -999 8 -999
2012-05-21 06:39:04 51°13.635 2°56.018 124.9 -999 322 -999
2012-05-21 06:39:09 51°13.635 2°56.018 124.9 -999 251 -999
2012-05-21 06:39:14 51°13.635 2°56.018 124.9 -999 345 -999
2012-05-21 06:39:18 51°13.635 2°56.018 124.9 -999 336 -999
2012-05-21 06:39:23 51°13.635 2°56.018 124.9 -999 202 -999
2012-05-21 06:39:28 51°13.635 2°56.018 124.9 -999 330 -999
2012-05-21 06:39:33 51°13.635 2°56.018 124.9 -999 314 -999
2012-05-21 06:39:39 51°13.635 2°56.018 124.9 -999 331 -999
2012-05-21 06:39:44 51°13.635 2°56.018 124.9 -999 27 -999
2012-05-21 06:39:49 51°13.635 2°56.018 124.9 -999 178 -999
2012-05-21 06:39:53 51°13.635 2°56.018 124.9 -999 156 -999
2012-05-21 06:39:58 51°13.635 2°56.018 124.9 -999 212 -999
2012-05-21 06:40:03 51°13.635 2°56.018 124.9 -999 264 -999
2012-05-21 06:40:08 51°13.636 2°56.018 124.9 -999 318 -999
2012-05-21 06:40:13 51°13.636 2°56.018 124.9 -999 299 -999
2012-05-21 06:40:18 51°13.636 2°56.018 124.9 -999 350 -999
2012-05-21 06:40:23 51°13.636 2°56.019 124.9 -999 339 -999
2012-05-21 06:40:29 51°13.636 2°56.019 124.9 0.1 337 -999
2012-05-21 06:40:34 51°13.636 2°56.019 124.9 0.1 339 -999
2012-05-21 06:40:39 51°13.635 2°56.019 124.9 -999 227 -999
2012-05-21 06:40:44 51°13.635 2°56.019 124.9 -999 159 -999
2012-05-21 06:40:48 51°13.635 2°56.019 124.9 -999 190 -999
2012-05-21 06:40:53 51°13.635 2°56.019 124.9 -999 245 -999
2012-05-21 06:40:58 51°13.635 2°56.019 124.9 0.1 335 -999
2012-05-21 06:41:03 51°13.635 2°56.019 125 0.1 348 -999
2012-05-21 06:41:08 51°13.635 2°56.019 125 -999 7 -999
2012-05-21 06:41:13 51°13.635 2°56.019 125 -999 4 -999
2012-05-21 06:41:18 51°13.635 2°56.018 125 0.1 236 -999
2012-05-21 06:41:23 51°13.635 2°56.018 125 0.1 221 -999
2012-05-21 06:41:28 51°13.635 2°56.019 125 -999 339 -999
2012-05-21 06:41:33 51°13.635 2°56.019 125 -999 344 -999
2012-05-21 06:41:38 51°13.635 2°56.019 125 -999 333 -999
2012-05-21 06:41:44 51°13.635 2°56.019 125 -999 314 -999
2012-05-21 06:41:49 51°13.635 2°56.019 125 -999 187 -999
2012-05-21 06:41:54 51°13.635 2°56.019 125 -999 212 -999
2012-05-21 06:41:59 51°13.635 2°56.019 125 -999 239 -999
2012-05-21 06:42:04 51°13.635 2°56.019 125 -999 219 -999
2012-05-21 06:42:09 51°13.635 2°56.019 125 -999 324 -999
2012-05-21 06:42:14 51°13.635 2°56.019 125 -999 342 -999
2012-05-21 06:42:19 51°13.635 2°56.019 125 -999 289 -999
2012-05-21 06:42:24 51°13.635 2°56.019 125 -999 218 -999
2012-05-21 06:42:29 51°13.635 2°56.019 125 -999 44 -999
2012-05-21 06:42:33 51°13.635 2°56.019 125 0.1 348 -999
2012-05-21 06:42:38 51°13.635 2°56.019 125 -999 269 -999
2012-05-21 06:42:43 51°13.635 2°56.019 125 0.1 147 -999
2012-05-21 06:42:48 51°13.635 2°56.019 125 0.1 163 -999
2012-05-21 06:42:53 51°13.635 2°56.019 125 -999 231 -999
2012-05-21 06:42:59 51°13.635 2°56.019 125 -999 24 -999
2012-05-21 06:43:04 51°13.635 2°56.019 125 0.1 177 -999
2012-05-21 06:43:09 51°13.635 2°56.019 125 0.1 198 -999
2012-05-21 06:43:14 51°13.635 2°56.019 125 -999 338 -999
2012-05-21 06:43:18 51°13.635 2°56.019 125 0.1 7 -999
2012-05-21 06:43:23 51°13.635 2°56.019 125 -999 7 -999
2012-05-21 06:43:29 51°13.635 2°56.019 125 -999 17 -999
2012-05-21 06:43:34 51°13.635 2°56.019 125 0.1 351 -999
2012-05-21 06:43:39 51°13.635 2°56.019 125 0.1 343 -999
2012-05-21 06:43:43 51°13.635 2°56.019 125 -999 322 -999
2012-05-21 06:43:49 51°13.635 2°56.019 125 -999 255 -999
2012-05-21 06:43:54 51°13.635 2°56.019 125 0.1 196 -999
2012-05-21 06:43:59 51°13.635 2°56.019 125 -999 272 -999
2012-05-21 06:44:04 51°13.635 2°56.019 125 0.1 256 -999
2012-05-21 06:44:09 51°13.635 2°56.019 125 -999 195 -999
2012-05-21 06:44:14 51°13.635 2°56.019 125 -999 18 -999
2012-05-21 06:44:19 51°13.635 2°56.019 125 -999 315 -999
2012-05-21 06:44:24 51°13.635 2°56.019 125 -999 207 -999
2012-05-21 06:44:29 51°13.635 2°56.019 125 -999 211 -999
2012-05-21 06:44:34 51°13.635 2°56.019 125 -999 277 -999
2012-05-21 06:44:39 51°13.635 2°56.019 125 -999 283 -999
2012-05-21 06:44:44 51°13.635 2°56.019 125 -999 299 -999
2012-05-21 06:44:49 51°13.635 2°56.019 125.1 -999 292 -999
2012-05-21 06:44:54 51°13.635 2°56.019 125.1 -999 261 -999
2012-05-21 06:44:59 51°13.635 2°56.018 125.1 -999 257 -999
2012-05-21 06:45:04 51°13.635 2°56.019 125.1 0.1 9 -999
2012-05-21 06:45:09 51°13.636 2°56.018 125.1 0.1 312 -999
2012-05-21 06:45:14 51°13.636 2°56.019 125.1 0.1 328 -999
2012-05-21 06:45:18 51°13.636 2°56.019 125.1 -999 347 -999
2012-05-21 06:45:24 51°13.636 2°56.019 125.1 -999 29 -999
2012-05-21 06:45:28 51°13.636 2°56.019 125.1 0.1 355 -999
2012-05-21 06:45:34 51°13.636 2°56.019 125.1 0.1 349 -999
2012-05-21 06:45:39 51°13.636 2°56.019 125.1 0.2 352 -999
2012-05-21 06:45:44 51°13.636 2°56.019 125.1 0.1 335 -999
2012-05-21 06:45:49 51°13.636 2°56.019 125.1 -999 222 -999
2012-05-21 06:45:54 51°13.636 2°56.019 125.1 0.1 242 -999
2012-05-21 06:45:59 51°13.636 2°56.019 125.1 0.1 177 -999
2012-05-21 06:46:04 51°13.636 2°56.019 125.1 0.1 177 -999
2012-05-21 06:46:09 51°13.636 2°56.019 125.1 0.1 171 -999
2012-05-21 06:46:14 51°13.636 2°56.019 125.1 -999 329 -999
2012-05-21 06:46:18 51°13.636 2°56.019 125.1 -999 266 -999
2012-05-21 06:46:23 51°13.636 2°56.019 125.1 -999 193 -999
2012-05-21 06:46:28 51°13.636 2°56.019 125.1 0.1 355 -999
2012-05-21 06:46:33 51°13.636 2°56.019 125.1 0.1 342 -999
2012-05-21 06:46:38 51°13.636 2°56.019 125.1 -999 263 -999
2012-05-21 06:46:43 51°13.636 2°56.019 125.1 -999 183 -999
2012-05-21 06:46:48 51°13.636 2°56.019 125.1 -999 166 -999
2012-05-21 06:46:54 51°13.636 2°56.019 125.2 -999 196 -999
2012-05-21 06:46:59 51°13.636 2°56.019 125.2 -999 56 -999
2012-05-21 06:47:04 51°13.636 2°56.019 125.2 0.1 256 -999
2012-05-21 06:47:09 51°13.636 2°56.019 125.2 0.1 244 -999
2012-05-21 06:47:14 51°13.635 2°56.019 125.2 -999 177 -999
2012-05-21 06:47:19 51°13.635 2°56.019 125.2 -999 149 -999
2012-05-21 06:47:24 51°13.635 2°56.019 125.2 0.1 147 -999
2012-05-21 06:47:29 51°13.635 2°56.019 125.2 0.1 176 -999
2012-05-21 06:47:33 51°13.635 2°56.019 125.2 0.1 188 -999
2012-05-21 06:47:38 51°13.635 2°56.019 125.2 -999 185 -999
2012-05-21 06:47:43 51°13.636 2°56.019 125.2 0.1 348 -999
2012-05-21 06:47:48 51°13.635 2°56.019 125.2 -999 188 -999
2012-05-21 06:47:53 51°13.635 2°56.019 125.2 -999 17 -999
2012-05-21 06:47:58 51°13.635 2°56.019 125.2 0.1 333 -999
2012-05-21 06:48:03 51°13.635 2°56.019 125.2 0.1 337 -999
2012-05-21 06:48:08 51°13.635 2°56.019 125.2 -999 97 -999
2012-05-21 06:48:13 51°13.635 2°56.019 125.2 -999 109 -999
2012-05-21 06:48:18 51°13.635 2°56.019 125.2 0.1 163 -999
2012-05-21 06:48:24 51°13.635 2°56.019 125.2 0.1 188 -999
2012-05-21 06:48:29 51°13.635 2°56.019 125.2 0.1 208 -999
2012-05-21 06:48:34 51°13.636 2°56.019 125.2 -999 333 -999
2012-05-21 06:48:39 51°13.635 2°56.019 125.2 -999 61 -999
2012-05-21 06:48:44 51°13.635 2°56.019 125.2 -999 24 -999
2012-05-21 06:48:49 51°13.635 2°56.019 125.2 -999 333 -999
2012-05-21 06:48:54 51°13.635 2°56.019 125.2 -999 64 -999
2012-05-21 06:48:59 51°13.635 2°56.019 125.2 0.1 131 -999
2012-05-21 06:49:04 51°13.635 2°56.019 125.2 -999 340 -999
2012-05-21 06:49:09 51°13.635 2°56.019 125.2 -999 285 -999
2012-05-21 06:49:14 51°13.635 2°56.019 125.2 -999 271 -999
2012-05-21 06:49:19 51°13.635 2°56.019 125.2 -999 196 -999
2012-05-21 06:49:24 51°13.635 2°56.019 125.2 -999 175 -999
2012-05-21 06:49:29 51°13.635 2°56.019 125.2 -999 266 -999
2012-05-21 06:49:34 51°13.635 2°56.019 125.2 -999 177 -999
2012-05-21 06:49:39 51°13.635 2°56.019 125.2 -999 146 -999
2012-05-21 06:49:44 51°13.635 2°56.019 125.2 0.1 188 -999
2012-05-21 06:49:49 51°13.635 2°56.019 125.2 0.1 188 -999
2012-05-21 06:49:54 51°13.635 2°56.019 125.2 -999 356 -999
2012-05-21 06:49:59 51°13.635 2°56.019 125.2 -999 158 -999
2012-05-21 06:50:04 51°13.634 2°56.019 125.2 0.1 162 -999
2012-05-21 06:50:09 51°13.634 2°56.019 125.2 0.1 55 -999
2012-05-21 06:50:14 51°13.635 2°56.019 125.2 0.1 309 -999
2012-05-21 06:50:19 51°13.635 2°56.019 125.2 0.1 267 -999
2012-05-21 06:50:24 51°13.634 2°56.019 125.2 0.2 187 -999
2012-05-21 06:50:29 51°13.634 2°56.019 125.2 0.2 146 -999
2012-05-21 06:50:34 51°13.634 2°56.019 125.2 0.1 52 -999
2012-05-21 06:50:39 51°13.634 2°56.019 125.2 -999 346 -999
2012-05-21 06:50:44 51°13.634 2°56.019 125.2 -999 168 -999
2012-05-21 06:50:49 51°13.634 2°56.019 125.2 -999 156 -999
2012-05-21 06:50:54 51°13.634 2°56.019 125.2 -999 349 -999
2012-05-21 06:50:59 51°13.634 2°56.019 125.2 -999 240 -999
2012-05-21 06:51:04 51°13.634 2°56.019 125.2 -999 315 -999
2012-05-21 06:51:09 51°13.634 2°56.019 125.2 -999 229 -999
2012-05-21 06:51:14 51°13.634 2°56.019 125.2 0.1 159 -999
2012-05-21 06:51:19 51°13.634 2°56.019 125.2 -999 136 -999
2012-05-21 06:51:24 51°13.634 2°56.019 125.2 -999 177 -999
2012-05-21 06:51:29 51°13.634 2°56.019 125.2 0.1 175 -999
2012-05-21 06:51:34 51°13.634 2°56.019 125.2 0.1 171 -999
2012-05-21 06:51:39 51°13.634 2°56.019 125.2 0.1 309 -999
2012-05-21 06:51:44 51°13.634 2°56.019 125.2 -999 301 -999
2012-05-21 06:51:49 51°13.634 2°56.019 125.2 -999 327 -999
2012-05-21 06:51:54 51°13.634 2°56.019 125.2 0.1 353 -999
2012-05-21 06:51:58 51°13.634 2°56.019 125.2 -999 -999 -999
2012-05-21 06:52:03 51°13.634 2°56.019 125.2 -999 15 -999
2012-05-21 06:52:09 51°13.634 2°56.019 125.2 -999 168 -999
2012-05-21 06:52:14 51°13.634 2°56.019 125.2 -999 152 -999
2012-05-21 06:52:18 51°13.634 2°56.019 125.2 -999 239 -999
2012-05-21 06:52:24 51°13.634 2°56.019 125.2 -999 227 -999
2012-05-21 06:52:28 51°13.634 2°56.019 125.2 -999 269 -999
2012-05-21 06:52:34 51°13.634 2°56.019 125.2 -999 231 -999
2012-05-21 06:52:39 51°13.634 2°56.019 125.2 -999 289 -999
2012-05-21 06:52:44 51°13.634 2°56.019 125.3 -999 285 -999
2012-05-21 06:52:48 51°13.634 2°56.019 125.3 -999 304 -999
2012-05-21 06:52:53 51°13.634 2°56.019 125.3 -999 37 -999
2012-05-21 06:52:59 51°13.634 2°56.019 125.3 -999 53 -999
2012-05-21 06:53:04 51°13.634 2°56.019 125.3 -999 186 -999
2012-05-21 06:53:09 51°13.634 2°56.019 125.3 -999 195 -999
2012-05-21 06:53:14 51°13.634 2°56.019 125.3 -999 324 -999
2012-05-21 06:53:19 51°13.634 2°56.019 125.3 -999 220 -999
2012-05-21 06:53:24 51°13.634 2°56.019 125.4 -999 342 -999
2012-05-21 06:53:29 51°13.634 2°56.019 125.4 -999 313 -999
2012-05-21 06:53:33 51°13.634 2°56.019 125.4 -999 220 -999
2012-05-21 06:53:39 51°13.634 2°56.02 125.4 -999 281 -999
2012-05-21 06:53:43 51°13.634 2°56.02 125.4 -999 303 -999
2012-05-21 06:53:48 51°13.634 2°56.02 125.5 -999 145 -999
2012-05-21 06:53:53 51°13.634 2°56.02 125.5 0.1 107 -999
2012-05-21 06:53:58 51°13.634 2°56.02 125.5 -999 23 -999
2012-05-21 06:54:03 51°13.634 2°56.019 125.5 0.1 290 -999
2012-05-21 06:54:08 51°13.634 2°56.02 125.5 -999 268 -999
2012-05-21 06:54:13 51°13.634 2°56.019 125.5 -999 143 -999
2012-05-21 06:54:18 51°13.635 2°56.019 125.5 -999 211 -999
2012-05-21 06:54:23 51°13.635 2°56.019 125.5 0.1 220 -999
2012-05-21 06:54:28 51°13.635 2°56.019 125.5 -999 179 -999
2012-05-21 06:54:33 51°13.635 2°56.019 125.5 -999 194 -999
2012-05-21 06:54:38 51°13.635 2°56.019 125.5 -999 318 -999
2012-05-21 06:54:43 51°13.635 2°56.019 125.5 -999 23 -999
2012-05-21 06:54:48 51°13.635 2°56.019 125.5 -999 199 -999
2012-05-21 06:54:54 51°13.635 2°56.019 125.5 -999 235 -999
2012-05-21 06:54:59 51°13.635 2°56.019 125.5 0.1 211 -999
2012-05-21 06:55:04 51°13.635 2°56.019 125.5 -999 258 -999
2012-05-21 06:55:09 51°13.635 2°56.019 125.5 -999 220 -999
2012-05-21 06:55:14 51°13.635 2°56.019 125.5 -999 212 -999
2012-05-21 06:55:19 51°13.635 2°56.019 125.5 -999 353 -999
2012-05-21 06:55:24 51°13.635 2°56.019 125.5 -999 331 -999
2012-05-21 06:55:29 51°13.635 2°56.019 125.5 -999 134 -999
2012-05-21 06:55:34 51°13.635 2°56.019 125.5 -999 20 -999
2012-05-21 06:55:39 51°13.635 2°56.019 125.5 -999 321 -999
2012-05-21 06:55:44 51°13.635 2°56.019 125.5 -999 206 -999
2012-05-21 06:55:48 51°13.635 2°56.019 125.5 0.1 181 -999
2012-05-21 06:55:53 51°13.635 2°56.019 125.5 0.1 182 -999
2012-05-21 06:55:58 51°13.635 2°56.019 125.5 0.1 153 -999
2012-05-21 06:56:03 51°13.635 2°56.019 125.5 0.1 135 -999
2012-05-21 06:56:08 51°13.636 2°56.019 125.5 -999 153 -999
2012-05-21 06:56:14 51°13.636 2°56.019 125.5 -999 232 -999
2012-05-21 06:56:19 51°13.636 2°56.019 125.5 0.1 171 -999
2012-05-21 06:56:24 51°13.636 2°56.019 125.5 -999 123 -999
2012-05-21 06:56:29 51°13.636 2°56.019 125.5 -999 171 -999
2012-05-21 06:56:34 51°13.636 2°56.019 125.5 -999 210 -999
2012-05-21 06:56:39 51°13.636 2°56.019 125.5 0.1 137 -999
2012-05-21 06:56:44 51°13.636 2°56.019 125.5 0.1 147 -999
2012-05-21 06:56:49 51°13.636 2°56.019 125.5 0.1 162 -999
2012-05-21 06:56:54 51°13.636 2°56.019 125.5 0.1 173 -999
2012-05-21 06:56:58 51°13.636 2°56.019 125.5 -999 37 -999
2012-05-21 06:57:03 51°13.636 2°56.019 125.5 -999 44 -999
2012-05-21 06:57:09 51°13.636 2°56.019 125.5 -999 194 -999
2012-05-21 06:57:14 51°13.637 2°56.019 125.5 -999 115 -999
2012-05-21 06:57:18 51°13.637 2°56.019 125.5 -999 113 -999
2012-05-21 06:57:23 51°13.637 2°56.019 125.5 0.1 152 -999
2012-05-21 06:57:28 51°13.637 2°56.019 125.5 -999 5 -999
2012-05-21 06:57:33 51°13.637 2°56.019 125.5 0.1 279 -999
2012-05-21 06:57:38 51°13.637 2°56.019 125.5 -999 278 -999
2012-05-21 06:57:43 51°13.637 2°56.019 125.5 -999 40 -999
2012-05-21 06:57:48 51°13.637 2°56.019 125.5 0.1 3 -999
2012-05-21 06:57:53 51°13.637 2°56.019 125.5 -999 202 -999
2012-05-21 06:57:58 51°13.637 2°56.019 125.5 0.1 239 -999
2012-05-21 06:58:04 51°13.637 2°56.019 125.5 -999 297 -999
2012-05-21 06:58:08 51°13.637 2°56.019 125.5 -999 156 -999
2012-05-21 06:58:14 51°13.637 2°56.019 125.5 -999 44 -999
2012-05-21 06:58:18 51°13.637 2°56.019 125.5 -999 247 -999
2012-05-21 06:58:23 51°13.637 2°56.019 125.5 -999 217 -999
2012-05-21 06:58:28 51°13.637 2°56.019 125.5 -999 99 -999
2012-05-21 06:58:33 51°13.637 2°56.019 125.5 -999 76 -999
2012-05-21 06:58:38 51°13.637 2°56.019 125.5 -999 93 -999
2012-05-21 06:58:44 51°13.637 2°56.019 125.5 -999 329 -999
2012-05-21 06:58:48 51°13.637 2°56.019 125.5 0.1 298 -999
2012-05-21 06:58:53 51°13.637 2°56.019 125.5 -999 338 -999
2012-05-21 06:58:58 51°13.637 2°56.019 125.5 0.1 246 -999
2012-05-21 06:59:03 51°13.637 2°56.019 125.5 -999 317 -999
2012-05-21 06:59:08 51°13.637 2°56.019 125.5 -999 11 -999
2012-05-21 06:59:13 51°13.637 2°56.018 125.5 -999 220 -999
2012-05-21 06:59:18 51°13.637 2°56.018 125.5 -999 195 -999
2012-05-21 06:59:24 51°13.637 2°56.018 125.5 -999 271 -999
2012-05-21 06:59:28 51°13.637 2°56.018 125.5 -999 263 -999
2012-05-21 06:59:33 51°13.637 2°56.018 125.5 -999 185 -999
2012-05-21 06:59:38 51°13.637 2°56.018 125.5 -999 243 -999
2012-05-21 06:59:44 51°13.637 2°56.018 125.5 -999 206 -999
2012-05-21 06:59:49 51°13.637 2°56.018 125.5 -999 108 -999
2012-05-21 06:59:54 51°13.637 2°56.018 125.5 -999 177 -999
2012-05-21 06:59:59 51°13.637 2°56.019 125.5 0.1 166 -999
2012-05-21 07:00:04 51°13.637 2°56.018 125.5 -999 160 -999
2012-05-21 07:00:09 51°13.637 2°56.018 125.5 -999 39 -999
2012-05-21 07:00:14 51°13.637 2°56.018 125.5 -999 12 -999
2012-05-21 07:00:19 51°13.637 2°56.018 125.6 -999 87 -999
2012-05-21 07:00:24 51°13.637 2°56.018 125.6 -999 352 -999
2012-05-21 07:00:29 51°13.637 2°56.019 125.6 0.1 151 -999
2012-05-21 07:00:34 51°13.637 2°56.019 125.6 -999 158 -999
2012-05-21 07:00:39 51°13.637 2°56.019 125.6 -999 114 -999
2012-05-21 07:00:44 51°13.637 2°56.019 125.6 0.1 158 -999
2012-05-21 07:00:49 51°13.637 2°56.019 125.6 0.1 155 -999
2012-05-21 07:00:54 51°13.637 2°56.019 125.6 -999 176 -999
2012-05-21 07:00:59 51°13.637 2°56.019 125.6 -999 102 -999
2012-05-21 07:01:04 51°13.637 2°56.019 125.6 0.1 80 -999
2012-05-21 07:01:09 51°13.637 2°56.019 125.6 0.1 69 -999
2012-05-21 07:01:14 51°13.637 2°56.018 125.6 0.1 14 -999
2012-05-21 07:01:19 51°13.637 2°56.018 125.6 0.1 321 -999
2012-05-21 07:01:24 51°13.637 2°56.018 125.6 0.1 331 -999
2012-05-21 07:01:29 51°13.637 2°56.018 125.6 -999 344 -999
2012-05-21 07:01:34 51°13.637 2°56.019 125.6 -999 208 -999
2012-05-21 07:01:39 51°13.637 2°56.019 125.6 -999 337 -999
2012-05-21 07:01:44 51°13.637 2°56.019 125.6 0.1 344 -999
2012-05-21 07:01:49 51°13.637 2°56.019 125.6 -999 270 -999
2012-05-21 07:01:54 51°13.637 2°56.019 125.6 0.1 159 -999
2012-05-21 07:01:59 51°13.637 2°56.019 125.6 0.1 83 -999
2012-05-21 07:02:04 51°13.637 2°56.019 125.6 0.1 57 -999
2012-05-21 07:02:09 51°13.637 2°56.019 125.6 -999 156 -999
2012-05-21 07:02:14 51°13.638 2°56.019 125.6 -999 132 -999
2012-05-21 07:02:19 51°13.637 2°56.019 125.6 0.1 135 -999
2012-05-21 07:02:24 51°13.637 2°56.019 125.6 -999 121 -999
2012-05-21 07:02:29 51°13.638 2°56.019 125.6 -999 326 -999
2012-05-21 07:02:34 51°13.638 2°56.019 125.6 0.1 288 -999
2012-05-21 07:02:39 51°13.637 2°56.019 125.6 0.1 164 -999
2012-05-21 07:02:44 51°13.638 2°56.019 125.6 -999 150 -999
2012-05-21 07:02:49 51°13.638 2°56.019 125.6 -999 6 -999
2012-05-21 07:02:54 51°13.638 2°56.019 125.6 -999 43 -999
2012-05-21 07:02:59 51°13.638 2°56.02 125.6 -999 265 -999
2012-05-21 07:03:04 51°13.638 2°56.02 125.6 -999 249 -999
2012-05-21 07:03:09 51°13.639 2°56.02 125.6 -999 244 -999
2012-05-21 07:03:14 51°13.639 2°56.02 125.6 -999 303 -999
2012-05-21 07:03:19 51°13.639 2°56.02 125.6 -999 209 -999
2012-05-21 07:03:24 51°13.638 2°56.02 125.6 -999 163 -999
2012-05-21 07:03:29 51°13.638 2°56.02 125.6 -999 324 -999
2012-05-21 07:03:34 51°13.638 2°56.02 125.6 -999 319 -999
2012-05-21 07:03:39 51°13.638 2°56.02 125.6 -999 305 -999
2012-05-21 07:03:44 51°13.638 2°56.02 125.6 0.1 339 -999
2012-05-21 07:03:49 51°13.638 2°56.021 125.6 -999 156 -999
2012-05-21 07:03:54 51°13.638 2°56.02 125.6 0.1 168 -999
2012-05-21 07:03:59 51°13.638 2°56.02 125.6 -999 264 -999
2012-05-21 07:04:04 51°13.638 2°56.02 125.6 -999 351 -999
2012-05-21 07:04:09 51°13.638 2°56.02 125.6 -999 98 -999
2012-05-21 07:04:14 51°13.638 2°56.02 125.6 -999 175 -999
2012-05-21 07:04:19 51°13.638 2°56.02 125.6 -999 337 -999
2012-05-21 07:04:24 51°13.638 2°56.02 125.6 0.1 14 -999
2012-05-21 07:04:29 51°13.638 2°56.02 125.6 -999 9 -999
2012-05-21 07:04:34 51°13.638 2°56.02 125.6 -999 239 -999
2012-05-21 07:04:39 51°13.638 2°56.02 125.6 -999 4 -999
2012-05-21 07:04:44 51°13.638 2°56.019 125.6 0.1 341 -999
2012-05-21 07:04:49 51°13.638 2°56.019 125.6 0.1 334 -999
2012-05-21 07:04:54 51°13.638 2°56.019 125.6 0.1 154 -999
2012-05-21 07:04:59 51°13.638 2°56.019 125.6 -999 20 -999
2012-05-21 07:05:04 51°13.638 2°56.019 125.6 0.1 353 -999
2012-05-21 07:05:09 51°13.638 2°56.019 125.6 -999 99 -999
2012-05-21 07:05:14 51°13.638 2°56.019 125.6 -999 156 -999
2012-05-21 07:05:19 51°13.638 2°56.019 125.6 -999 277 -999
2012-05-21 07:05:24 51°13.638 2°56.019 125.6 -999 288 -999
2012-05-21 07:05:29 51°13.638 2°56.019 125.6 -999 280 -999
2012-05-21 07:05:34 51°13.638 2°56.019 125.6 -999 230 -999
2012-05-21 07:05:39 51°13.638 2°56.019 125.6 -999 289 -999
2012-05-21 07:05:44 51°13.638 2°56.019 125.5 -999 270 -999
2012-05-21 07:05:49 51°13.638 2°56.019 125.5 -999 184 -999
2012-05-21 07:05:54 51°13.638 2°56.019 125.5 -999 164 -999
2012-05-21 07:05:59 51°13.638 2°56.019 125.5 -999 186 -999
2012-05-21 07:06:04 51°13.638 2°56.019 125.5 -999 352 -999
2012-05-21 07:06:09 51°13.638 2°56.019 125.5 0.1 341 -999
2012-05-21 07:06:14 51°13.638 2°56.019 125.5 0.1 330 -999
2012-05-21 07:06:19 51°13.638 2°56.019 125.5 0.1 302 -999
2012-05-21 07:06:24 51°13.638 2°56.019 125.5 0.1 271 -999
2012-05-21 07:06:29 51°13.638 2°56.019 125.5 -999 293 -999
2012-05-21 07:06:34 51°13.638 2°56.019 125.5 -999 285 -999
2012-05-21 07:06:39 51°13.638 2°56.019 125.5 0.1 317 -999
2012-05-21 07:06:44 51°13.638 2°56.019 125.5 -999 312 -999
2012-05-21 07:06:49 51°13.638 2°56.019 125.5 -999 324 -999
2012-05-21 07:06:54 51°13.638 2°56.019 125.5 -999 308 -999
2012-05-21 07:06:59 51°13.637 2°56.019 125.5 -999 196 -999
2012-05-21 07:07:03 51°13.637 2°56.019 125.5 -999 179 -999
2012-05-21 07:07:09 51°13.637 2°56.019 125.5 0.1 180 -999
2012-05-21 07:07:14 51°13.637 2°56.019 125.5 0.1 170 -999
2012-05-21 07:07:19 51°13.637 2°56.019 125.5 0.1 171 -999
2012-05-21 07:07:24 51°13.638 2°56.019 125.5 -999 2 -999
2012-05-21 07:07:29 51°13.638 2°56.019 125.5 -999 327 -999
2012-05-21 07:07:34 51°13.638 2°56.019 125.5 -999 73 -999
2012-05-21 07:07:39 51°13.638 2°56.019 125.5 -999 127 -999
2012-05-21 07:07:44 51°13.638 2°56.019 125.4 -999 357 -999
2012-05-21 07:07:49 51°13.638 2°56.019 125.4 -999 158 -999
2012-05-21 07:07:54 51°13.638 2°56.019 125.4 -999 135 -999
2012-05-21 07:07:59 51°13.638 2°56.019 125.4 -999 184 -999
2012-05-21 07:08:04 51°13.638 2°56.019 125.4 0.1 231 -999
2012-05-21 07:08:09 51°13.638 2°56.019 125.4 0.1 157 -999
2012-05-21 07:08:14 51°13.638 2°56.019 125.4 -999 91 -999
2012-05-21 07:08:19 51°13.638 2°56.018 125.4 -999 27 -999
2012-05-21 07:08:24 51°13.637 2°56.018 125.4 -999 146 -999
2012-05-21 07:08:29 51°13.637 2°56.018 125.4 0.1 141 -999
2012-05-21 07:08:34 51°13.637 2°56.018 125.4 0.1 141 -999
2012-05-21 07:08:39 51°13.637 2°56.018 125.4 -999 211 -999
2012-05-21 07:08:44 51°13.637 2°56.018 125.4 -999 234 -999
2012-05-21 07:08:49 51°13.637 2°56.018 125.4 0.1 336 -999
2012-05-21 07:08:54 51°13.638 2°56.018 125.5 0.1 334 -999
2012-05-21 07:08:59 51°13.637 2°56.018 125.5 -999 231 -999
2012-05-21 07:09:04 51°13.637 2°56.018 125.5 -999 186 -999
2012-05-21 07:09:09 51°13.637 2°56.019 125.5 -999 222 -999
2012-05-21 07:09:14 51°13.637 2°56.019 125.5 0.1 137 -999
2012-05-21 07:09:19 51°13.637 2°56.019 125.5 -999 242 -999
2012-05-21 07:09:23 51°13.637 2°56.019 125.5 0.1 205 -999
2012-05-21 07:09:29 51°13.637 2°56.019 125.5 -999 163 -999
2012-05-21 07:09:34 51°13.637 2°56.019 125.5 -999 200 -999
2012-05-21 07:09:39 51°13.637 2°56.019 125.5 -999 158 -999
2012-05-21 07:09:44 51°13.637 2°56.019 125.5 -999 321 -999
2012-05-21 07:09:49 51°13.637 2°56.019 125.5 -999 300 -999
2012-05-21 07:09:54 51°13.637 2°56.019 125.5 -999 161 -999
2012-05-21 07:09:59 51°13.636 2°56.019 125.5 0.1 168 -999
2012-05-21 07:10:04 51°13.637 2°56.019 125.5 -999 303 -999
2012-05-21 07:10:09 51°13.637 2°56.019 125.5 -999 20 -999
2012-05-21 07:10:14 51°13.637 2°56.019 125.5 -999 349 -999
2012-05-21 07:10:19 51°13.637 2°56.019 125.5 0.1 336 -999
2012-05-21 07:10:24 51°13.637 2°56.019 125.5 0.1 349 -999
2012-05-21 07:10:29 51°13.637 2°56.019 125.5 0.1 17 -999
2012-05-21 07:10:34 51°13.637 2°56.019 125.5 0.1 337 -999
2012-05-21 07:10:39 51°13.637 2°56.019 125.5 -999 262 -999
2012-05-21 07:10:44 51°13.637 2°56.019 125.5 0.1 306 -999
2012-05-21 07:10:49 51°13.637 2°56.019 125.5 0.1 324 -999
2012-05-21 07:10:53 51°13.637 2°56.018 125.5 0.1 328 -999
2012-05-21 07:10:59 51°13.636 2°56.019 125.5 -999 238 -999
2012-05-21 07:11:04 51°13.636 2°56.019 125.5 0.1 296 -999
2012-05-21 07:11:09 51°13.636 2°56.019 125.5 0.1 320 -999
2012-05-21 07:11:14 51°13.636 2°56.019 125.5 0.1 280 -999
2012-05-21 07:11:19 51°13.636 2°56.019 125.5 -999 344 -999
2012-05-21 07:11:24 51°13.636 2°56.019 125.4 0.1 310 -999
2012-05-21 07:11:29 51°13.636 2°56.019 125.4 0.1 323 -999
2012-05-21 07:11:34 51°13.636 2°56.019 125.4 -999 296 -999
2012-05-21 07:11:39 51°13.636 2°56.019 125.4 0.1 355 -999
2012-05-21 07:11:43 51°13.636 2°56.019 125.4 -999 332 -999
2012-05-21 07:11:49 51°13.635 2°56.019 125.4 0.1 195 -999
2012-05-21 07:11:54 51°13.635 2°56.019 125.4 -999 90 -999
2012-05-21 07:11:59 51°13.635 2°56.019 125.4 -999 33 -999
2012-05-21 07:12:04 51°13.635 2°56.019 125.4 -999 232 -999
2012-05-21 07:12:09 51°13.635 2°56.019 125.4 0.1 276 -999
2012-05-21 07:12:14 51°13.635 2°56.019 125.4 -999 99 -999
2012-05-21 07:12:19 51°13.635 2°56.019 125.4 -999 9 -999
2012-05-21 07:12:24 51°13.635 2°56.019 125.4 -999 356 -999
2012-05-21 07:12:29 51°13.635 2°56.019 125.4 0.1 343 -999
2012-05-21 07:12:34 51°13.635 2°56.019 125.4 0.1 300 -999
2012-05-21 07:12:39 51°13.635 2°56.019 125.4 -999 196 -999
2012-05-21 07:12:44 51°13.634 2°56.019 125.4 -999 89 -999
2012-05-21 07:12:49 51°13.634 2°56.019 125.4 0.1 38 -999
2012-05-21 07:12:54 51°13.634 2°56.019 125.4 -999 137 -999
2012-05-21 07:12:59 51°13.634 2°56.019 125.4 -999 51 -999
2012-05-21 07:13:04 51°13.634 2°56.019 125.4 -999 134 -999
2012-05-21 07:13:09 51°13.634 2°56.019 125.4 0.1 295 -999
2012-05-21 07:13:14 51°13.635 2°56.019 125.4 0.1 298 -999
2012-05-21 07:13:19 51°13.634 2°56.019 125.4 -999 155 -999
2012-05-21 07:13:24 51°13.635 2°56.019 125.4 -999 227 -999
2012-05-21 07:13:29 51°13.635 2°56.019 125.4 -999 292 -999
2012-05-21 07:13:33 51°13.635 2°56.019 125.4 -999 205 -999
2012-05-21 07:13:39 51°13.635 2°56.019 125.4 0.1 189 -999
2012-05-21 07:13:44 51°13.635 2°56.019 125.4 0.1 149 -999
2012-05-21 07:13:48 51°13.635 2°56.019 125.4 -999 137 -999
2012-05-21 07:13:54 51°13.635 2°56.019 125.4 0.1 154 -999
2012-05-21 07:13:59 51°13.634 2°56.019 125.3 0.1 119 -999
2012-05-21 07:14:04 51°13.635 2°56.019 125.3 -999 338 -999
2012-05-21 07:14:09 51°13.635 2°56.019 125.3 -999 167 -999
2012-05-21 07:14:14 51°13.635 2°56.019 125.3 -999 333 -999
2012-05-21 07:14:19 51°13.634 2°56.019 125.3 0.1 181 -999
2012-05-21 07:14:23 51°13.634 2°56.019 125.3 -999 160 -999
2012-05-21 07:14:29 51°13.634 2°56.019 125.3 -999 153 -999
2012-05-21 07:14:34 51°13.634 2°56.019 125.3 0.1 188 -999
2012-05-21 07:14:39 51°13.634 2°56.019 125.3 -999 356 -999
2012-05-21 07:14:44 51°13.634 2°56.019 125.3 0.1 177 -999
2012-05-21 07:14:49 51°13.634 2°56.019 125.3 -999 254 -999
2012-05-21 07:14:54 51°13.634 2°56.019 125.3 -999 166 -999
2012-05-21 07:14:59 51°13.634 2°56.019 125.3 0.1 169 -999
2012-05-21 07:15:04 51°13.634 2°56.019 125.3 -999 144 -999
2012-05-21 07:15:09 51°13.634 2°56.019 125.3 -999 63 -999
2012-05-21 07:15:14 51°13.634 2°56.019 125.3 0.1 194 -999
2012-05-21 07:15:19 51°13.635 2°56.019 125.3 -999 214 -999
2012-05-21 07:15:24 51°13.635 2°56.019 125.3 -999 314 -999
2012-05-21 07:15:29 51°13.635 2°56.019 125.3 -999 299 -999
2012-05-21 07:15:34 51°13.634 2°56.019 125.3 -999 176 -999
2012-05-21 07:15:39 51°13.634 2°56.019 125.3 -999 196 -999
2012-05-21 07:15:44 51°13.634 2°56.019 125.3 -999 241 -999
2012-05-21 07:15:49 51°13.634 2°56.019 125.3 -999 232 -999
2012-05-21 07:15:54 51°13.634 2°56.019 125.3 0.1 190 -999
2012-05-21 07:15:59 51°13.634 2°56.019 125.3 -999 196 -999
2012-05-21 07:16:04 51°13.635 2°56.019 125.3 -999 228 -999
2012-05-21 07:16:09 51°13.635 2°56.018 125.3 -999 234 -999
2012-05-21 07:16:14 51°13.635 2°56.018 125.3 -999 241 -999
2012-05-21 07:16:19 51°13.635 2°56.018 125.3 -999 195 -999
2012-05-21 07:16:24 51°13.635 2°56.018 125.3 -999 274 -999
2012-05-21 07:16:29 51°13.635 2°56.017 125.3 0.1 333 -999
2012-05-21 07:16:34 51°13.635 2°56.017 125.3 0.1 324 -999
2012-05-21 07:16:39 51°13.635 2°56.018 125.3 -999 136 -999
2012-05-21 07:16:44 51°13.635 2°56.018 125.3 0.1 153 -999
2012-05-21 07:16:49 51°13.635 2°56.018 125.3 0.1 176 -999
2012-05-21 07:16:54 51°13.635 2°56.018 125.3 -999 155 -999
2012-05-21 07:16:59 51°13.635 2°56.018 125.3 -999 96 -999
2012-05-21 07:17:04 51°13.635 2°56.018 125.3 -999 144 -999
2012-05-21 07:17:09 51°13.635 2°56.018 125.2 -999 94 -999
2012-05-21 07:17:14 51°13.635 2°56.018 125.2 -999 222 -999
2012-05-21 07:17:19 51°13.635 2°56.018 125.3 -999 309 -999
2012-05-21 07:17:23 51°13.635 2°56.018 125.3 -999 185 -999
2012-05-21 07:17:29 51°13.635 2°56.018 125.3 -999 343 -999
2012-05-21 07:17:34 51°13.635 2°56.018 125.3 -999 232 -999
2012-05-21 07:17:39 51°13.636 2°56.018 125.3 -999 6 -999
2012-05-21 07:17:44 51°13.636 2°56.018 125.3 -999 340 -999
2012-05-21 07:17:49 51°13.636 2°56.018 125.3 0.1 142 -999
2012-05-21 07:17:54 51°13.636 2°56.018 125.3 -999 146 -999
2012-05-21 07:17:59 51°13.636 2°56.017 125.3 -999 154 -999
2012-05-21 07:18:04 51°13.636 2°56.017 125.3 0.1 174 -999
2012-05-21 07:18:09 51°13.635 2°56.017 125.3 0.1 175 -999
2012-05-21 07:18:14 51°13.636 2°56.017 125.3 -999 209 -999
2012-05-21 07:18:19 51°13.636 2°56.017 125.3 -999 310 -999
2012-05-21 07:18:24 51°13.636 2°56.017 125.3 -999 306 -999
2012-05-21 07:18:29 51°13.635 2°56.017 125.2 -999 308 -999
2012-05-21 07:18:34 51°13.635 2°56.017 125.2 -999 304 -999
2012-05-21 07:18:39 51°13.635 2°56.017 125.2 -999 191 -999
2012-05-21 07:18:44 51°13.635 2°56.017 125.2 -999 127 -999
2012-05-21 07:18:49 51°13.635 2°56.017 125.2 -999 168 -999
2012-05-21 07:18:54 51°13.636 2°56.017 125.2 -999 106 -999
2012-05-21 07:18:59 51°13.636 2°56.017 125.2 -999 5 -999
2012-05-21 07:19:04 51°13.636 2°56.017 125.2 -999 325 -999
2012-05-21 07:19:09 51°13.636 2°56.017 125.2 0.1 169 -999
2012-05-21 07:19:14 51°13.636 2°56.017 125.2 0.1 129 -999
2012-05-21 07:19:19 51°13.636 2°56.017 125.2 -999 120 -999
2012-05-21 07:19:23 51°13.636 2°56.017 125.2 -999 331 -999
2012-05-21 07:19:29 51°13.636 2°56.017 125.2 0.1 322 -999
2012-05-21 07:19:34 51°13.636 2°56.017 125.2 -999 177 -999
2012-05-21 07:19:39 51°13.636 2°56.017 125.2 -999 343 -999
2012-05-21 07:19:44 51°13.636 2°56.017 125.2 -999 148 -999
2012-05-21 07:19:49 51°13.636 2°56.017 125.2 -999 106 -999
2012-05-21 07:19:54 51°13.636 2°56.017 125.2 -999 47 -999
2012-05-21 07:19:59 51°13.636 2°56.017 125.2 -999 75 -999
2012-05-21 07:20:04 51°13.636 2°56.017 125.2 -999 305 -999
2012-05-21 07:20:09 51°13.636 2°56.017 125.2 0.1 176 -999
2012-05-21 07:20:14 51°13.636 2°56.017 125.2 0.2 150 -999
2012-05-21 07:20:18 51°13.636 2°56.017 125.2 -999 320 -999
2012-05-21 07:20:24 51°13.636 2°56.017 125.2 0.1 315 -999
2012-05-21 07:20:29 51°13.636 2°56.017 125.2 0.1 334 -999
2012-05-21 07:20:34 51°13.636 2°56.017 125.2 -999 291 -999
2012-05-21 07:20:39 51°13.636 2°56.017 125.2 -999 217 -999
2012-05-21 07:20:44 51°13.636 2°56.017 125.2 -999 279 -999
2012-05-21 07:20:49 51°13.636 2°56.017 125.2 -999 276 -999
2012-05-21 07:20:54 51°13.636 2°56.017 125.2 0.1 196 -999
2012-05-21 07:20:59 51°13.636 2°56.017 125.2 0.1 160 -999
2012-05-21 07:21:04 51°13.636 2°56.017 125.2 -999 342 -999
2012-05-21 07:21:09 51°13.636 2°56.017 125.2 -999 330 -999
2012-05-21 07:21:14 51°13.636 2°56.017 125.2 0.1 323 -999
2012-05-21 07:21:19 51°13.636 2°56.016 125.2 0.1 322 -999
2012-05-21 07:21:24 51°13.636 2°56.016 125.2 0.1 295 -999
2012-05-21 07:21:29 51°13.636 2°56.016 125.2 -999 259 -999
2012-05-21 07:21:34 51°13.636 2°56.016 125.2 -999 170 -999
2012-05-21 07:21:39 51°13.636 2°56.016 125.2 -999 51 -999
2012-05-21 07:21:44 51°13.636 2°56.016 125.3 0.1 323 -999
2012-05-21 07:21:49 51°13.636 2°56.016 125.3 0.1 195 -999
2012-05-21 07:21:54 51°13.636 2°56.016 125.3 0.1 129 -999
2012-05-21 07:21:59 51°13.636 2°56.016 125.3 0.1 330 -999
2012-05-21 07:22:04 51°13.636 2°56.016 125.3 -999 310 -999
2012-05-21 07:22:09 51°13.636 2°56.016 125.3 -999 18 -999
2012-05-21 07:22:14 51°13.636 2°56.016 125.3 -999 327 -999
2012-05-21 07:22:19 51°13.636 2°56.016 125.3 -999 308 -999
2012-05-21 07:22:24 51°13.637 2°56.016 125.3 0.1 340 -999
2012-05-21 07:22:29 51°13.637 2°56.015 125.3 0.1 330 -999
2012-05-21 07:22:34 51°13.637 2°56.015 125.3 -999 345 -999
2012-05-21 07:22:39 51°13.637 2°56.015 125.3 -999 197 -999
2012-05-21 07:22:44 51°13.637 2°56.015 125.3 0.1 144 -999
2012-05-21 07:22:49 51°13.637 2°56.015 125.3 -999 215 -999
2012-05-21 07:22:54 51°13.637 2°56.015 125.3 -999 236 -999
2012-05-21 07:22:58 51°13.637 2°56.015 125.3 0.1 327 -999
2012-05-21 07:23:04 51°13.637 2°56.015 125.3 0.1 317 -999
2012-05-21 07:23:09 51°13.637 2°56.015 125.3 0.1 287 -999
2012-05-21 07:23:14 51°13.637 2°56.015 125.3 0.1 321 -999
2012-05-21 07:23:19 51°13.637 2°56.015 125.3 0.1 328 -999
2012-05-21 07:23:24 51°13.637 2°56.015 125.3 0.1 278 -999
2012-05-21 07:23:29 51°13.637 2°56.015 125.3 -999 244 -999
2012-05-21 07:23:34 51°13.637 2°56.015 125.3 -999 41 -999
2012-05-21 07:23:39 51°13.637 2°56.015 125.3 -999 327 -999
2012-05-21 07:23:44 51°13.637 2°56.015 125.3 -999 196 -999
2012-05-21 07:23:49 51°13.637 2°56.016 125.3 -999 171 -999
2012-05-21 07:23:54 51°13.637 2°56.016 125.3 -999 327 -999
2012-05-21 07:23:59 51°13.637 2°56.015 125.3 -999 186 -999
2012-05-21 07:24:04 51°13.637 2°56.015 125.3 0.1 284 -999
2012-05-21 07:24:09 51°13.637 2°56.015 125.3 -999 303 -999
2012-05-21 07:24:14 51°13.637 2°56.015 125.3 -999 158 -999
2012-05-21 07:24:19 51°13.637 2°56.015 125.3 -999 289 -999
2012-05-21 07:24:24 51°13.638 2°56.015 125.3 0.1 309 -999
2012-05-21 07:24:29 51°13.638 2°56.015 125.3 -999 280 -999
2012-05-21 07:24:34 51°13.638 2°56.015 125.3 -999 102 -999
2012-05-21 07:24:39 51°13.638 2°56.015 125.3 -999 43 -999
2012-05-21 07:24:44 51°13.638 2°56.015 125.3 -999 147 -999
2012-05-21 07:24:49 51°13.638 2°56.014 125.3 -999 155 -999
2012-05-21 07:24:54 51°13.638 2°56.014 125.3 -999 17 -999
2012-05-21 07:24:59 51°13.638 2°56.014 125.3 0.1 136 -999
2012-05-21 07:25:03 51°13.638 2°56.014 125.3 0.1 128 -999
2012-05-21 07:25:09 51°13.638 2°56.014 125.3 0.1 166 -999
2012-05-21 07:25:14 51°13.638 2°56.014 125.3 -999 223 -999
2012-05-21 07:25:19 51°13.638 2°56.014 125.3 -999 216 -999
2012-05-21 07:25:23 51°13.638 2°56.014 125.3 -999 233 -999
2012-05-21 07:25:29 51°13.638 2°56.014 125.3 -999 293 -999
2012-05-21 07:25:34 51°13.638 2°56.014 125.3 -999 212 -999
2012-05-21 07:25:39 51°13.638 2°56.014 125.3 0.1 173 -999
2012-05-21 07:25:44 51°13.638 2°56.014 125.3 -999 182 -999
2012-05-21 07:25:49 51°13.638 2°56.014 125.3 -999 7 -999
2012-05-21 07:25:54 51°13.638 2°56.014 125.3 0.1 331 -999
2012-05-21 07:25:59 51°13.638 2°56.014 125.3 -999 328 -999
2012-05-21 07:26:04 51°13.638 2°56.014 125.3 -999 240 -999
2012-05-21 07:26:09 51°13.638 2°56.014 125.3 -999 231 -999
2012-05-21 07:26:14 51°13.638 2°56.015 125.3 -999 286 -999
2012-05-21 07:26:19 51°13.638 2°56.015 125.3 0.1 349 -999
2012-05-21 07:26:24 51°13.638 2°56.015 125.3 0.1 319 -999
2012-05-21 07:26:29 51°13.638 2°56.015 125.3 0.1 291 -999
2012-05-21 07:26:34 51°13.638 2°56.015 125.3 -999 350 -999
2012-05-21 07:26:39 51°13.638 2°56.015 125.3 0.1 156 -999
2012-05-21 07:26:44 51°13.638 2°56.015 125.3 -999 147 -999
2012-05-21 07:26:49 51°13.638 2°56.015 125.3 -999 220 -999
2012-05-21 07:26:53 51°13.638 2°56.015 125.3 0.1 233 -999
2012-05-21 07:26:59 51°13.638 2°56.015 125.3 0.1 255 -999
2012-05-21 07:27:04 51°13.638 2°56.015 125.3 0.1 308 -999
2012-05-21 07:27:09 51°13.638 2°56.016 125.3 -999 216 -999
2012-05-21 07:27:14 51°13.638 2°56.016 125.3 -999 264 -999
2012-05-21 07:27:19 51°13.638 2°56.016 125.3 -999 282 -999
2012-05-21 07:27:24 51°13.638 2°56.016 125.3 -999 321 -999
2012-05-21 07:27:29 51°13.638 2°56.016 125.3 -999 347 -999
2012-05-21 07:27:34 51°13.638 2°56.016 125.3 -999 340 -999
2012-05-21 07:27:39 51°13.638 2°56.016 125.3 0.1 127 -999
2012-05-21 07:27:44 51°13.638 2°56.016 125.3 0.1 113 -999
2012-05-21 07:27:49 51°13.638 2°56.015 125.3 0.1 110 -999
2012-05-21 07:27:54 51°13.639 2°56.015 125.3 -999 308 -999
2012-05-21 07:27:59 51°13.639 2°56.015 125.3 0.1 290 -999
2012-05-21 07:28:03 51°13.639 2°56.015 125.3 0.1 224 -999
2012-05-21 07:28:09 51°13.638 2°56.016 125.3 0.2 157 -999
2012-05-21 07:28:14 51°13.638 2°56.016 125.3 0.1 142 -999
2012-05-21 07:28:19 51°13.638 2°56.016 125.3 0.1 128 -999
2012-05-21 07:28:24 51°13.639 2°56.015 125.3 -999 104 -999
2012-05-21 07:28:29 51°13.639 2°56.015 125.3 -999 304 -999
2012-05-21 07:28:34 51°13.639 2°56.015 125.3 -999 193 -999
2012-05-21 07:28:39 51°13.639 2°56.015 125.3 -999 85 -999
2012-05-21 07:28:44 51°13.639 2°56.015 125.3 -999 121 -999
2012-05-21 07:28:49 51°13.639 2°56.015 125.3 0.1 151 -999
2012-05-21 07:28:54 51°13.639 2°56.015 125.3 -999 217 -999
2012-05-21 07:28:58 51°13.639 2°56.015 125.3 -999 256 -999
2012-05-21 07:29:03 51°13.639 2°56.015 125.3 -999 193 -999
2012-05-21 07:29:08 51°13.639 2°56.015 125.3 0.1 146 -999
2012-05-21 07:29:13 51°13.639 2°56.015 125.3 -999 210 -999
2012-05-21 07:29:18 51°13.64 2°56.015 125.3 0.1 316 -999
2012-05-21 07:29:23 51°13.639 2°56.015 125.3 -999 245 -999
2012-05-21 07:29:29 51°13.639 2°56.015 125.3 -999 171 -999
2012-05-21 07:29:34 51°13.639 2°56.015 125.3 -999 144 -999
2012-05-21 07:29:39 51°13.639 2°56.015 125.3 -999 318 -999
2012-05-21 07:29:44 51°13.639 2°56.015 125.3 -999 357 -999
2012-05-21 07:29:49 51°13.639 2°56.016 125.3 -999 182 -999
2012-05-21 07:29:54 51°13.639 2°56.016 125.3 -999 181 -999
2012-05-21 07:29:59 51°13.639 2°56.016 125.3 -999 258 -999
2012-05-21 07:30:04 51°13.639 2°56.016 125.3 -999 145 -999
2012-05-21 07:30:08 51°13.638 2°56.016 125.3 0.1 144 -999
2012-05-21 07:30:14 51°13.638 2°56.016 125.3 -999 194 -999
2012-05-21 07:30:19 51°13.638 2°56.016 125.3 -999 231 -999
2012-05-21 07:30:24 51°13.638 2°56.016 125.3 -999 13 -999
2012-05-21 07:30:28 51°13.638 2°56.016 125.2 -999 327 -999
2012-05-21 07:30:34 51°13.638 2°56.016 125.2 -999 203 -999
2012-05-21 07:30:39 51°13.638 2°56.016 125.3 0.1 229 -999
2012-05-21 07:30:44 51°13.638 2°56.016 125.3 0.1 294 -999
2012-05-21 07:30:49 51°13.638 2°56.016 125.3 0.1 306 -999
2012-05-21 07:30:54 51°13.638 2°56.016 125.3 0.1 306 -999
2012-05-21 07:30:59 51°13.638 2°56.017 125.2 -999 310 -999
2012-05-21 07:31:03 51°13.638 2°56.017 125.2 -999 302 -999